Galva, IA

10:22 PM CDT on August 20, 2014 (GMT -0500)
Storm Lake Municipal | Change Station
CLOSE
Current Station
Airport
Location: Storm Lake,
Elevation: 1490 ft
Nearby Weather Stations

Elev 1490 ft 42.60 °N, 95.24 °W | Updated 7 minutes ago

Clear
Clear
70 °F
Feels Like 70 °F
N
5
Wind Variable Wind from ESE

Today
High -- | Low -- °F
--% Chance of Precip.
Yesterday
High -- | Low -- °F
Precip. -- in
6:33 AM 8:15 PM
Waning Crescent, 17% visible
Pressure 29.84 in
Visibility 1.0 miles
Clouds Clear
Dew Point 70 °F
Humidity 100%
Rainfall 0.02 in
Snow Depth Not available.
UV 0 out of 12
Pollen 7.90 out of 12
Air Quality Not available.
Flu Activity Not available.
METAR KSLB 210315Z AUTO 12004KT 1SM BR CLR 21/21 A2984 RMK AO2

More Conditions Fewer Conditions

Pressure 29.84 in
Visibility 1.0 miles
Clouds Clear
Dew Point 70 °F
Humidity 100%
Rainfall 0.02 in
Snow Depth Not available.
UV 0 out of 12
Pollen 7.90 out of 12
Air Quality Not available.
Flu Activity Not available.
METAR KSLB 210315Z AUTO 12004KT 1SM BR CLR 21/21 A2984 RMK AO2

More Conditions Fewer Conditions

10-Day Weather Forecast

Almanac

Astronomy

Aug. 20, 2014 Rise Set
Actual Time 6:33 AM CDT 8:15 PM CDT
Civil Twilight 6:04 AM CDT 8:45 PM CDT
Nautical Twilight 5:27 AM CDT 9:21 PM CDT
Astronomical Twilight 4:48 AM CDT 10:00 PM CDT
Moon 2:12 AM CDT (8/20) 5:03 PM CDT (8/20)
Length of Visible Light 14h 41m
Length of Day
13h 41m
Tomorrow will be 2m 38s shorter.
Waning Crescent, 17% of the Moon is Illuminated
Today
Waning Crescent
Aug 25
New
Sep 2
First Quarter
Sep 8
Full
Sep 15
Last Quarter

Today's Extremes

State Highs State Lows

Community

WunderPhotos

Upload Photos

1,745,841 photos uploaded!

Nearby

Snow Depth

Station Depth Elevation
No new snow has been reported.

Earthquake Activity

City Distance Mag. Time & Date
No recent earthquake activity has been reported nearby.
Minimum magnitude displayed is 2.5.

Coastal Water Temperatures

Place Temperature
No Stations Reporting

Nearby Weather Stations